Report METAR

 

LJLJ - Ljubljana/Brnik, Slovenia
Distance from station: O 41km
Dati ricevuti: 20/10/2021 14:00
Molto nuvoloso
Molto nuvoloso
 Vento da OSO
Vento: OSO 19 km/h
Temperatura: 16°C
P.to Rugiada: 8°C
Umidità: 59%
Barometro: 1022 hPa
Nuvole: Molto nuvoloso
Visibility: 10 km
Cloud details: Few Clouds 30 m
Molto nuvoloso 7620 m
2021/10/20 12:00 LJLJ 201200Z 24010KT 200V290 9999 FEW001 BKN250 16/08 Q1022 NOSIG
LJMB - Maribor, Slovenia
Distance from station: NE 63km
Dati ricevuti: 20/10/2021 14:00
Sereno
Sereno
 Vento da SSO
Vento: SSO 20 km/h
Temperatura: 20°C
P.to Rugiada: 8°C
Umidità: 46%
Barometro: 1018 hPa
Summary: Sereno
Visibility: superiore a 10 km
2021/10/20 12:00 LJMB 201200Z 21011KT 170V250 CAVOK 20/08 Q1018
 
LJPZ - Portoroz, Slovenia
Distance from station: SO 130km
Dati ricevuti: 20/10/2021 14:00
Few Clouds
Few Clouds
 Vento da SO
Vento: SO 11 km/h
Temperatura: 19°C
P.to Rugiada: 12°C
Umidità: 64%
Barometro: 1024 hPa
Nuvole: Few Clouds
Visibility: 10 km
Cloud details: Few Clouds 792 m
2021/10/20 12:00 LJPZ 201200Z 22006KT 9999 FEW026 19/12 Q1024
LJCE - Cerklje, Slovenia
Distance from station: ESE 49km
Dati ricevuti: 20/10/2021 14:00
Sereno
Sereno
 Vento da SO
Vento: SO 20 km/h
Temperatura: 20°C
P.to Rugiada: 10°C
Umidità: 53%
Barometro: 1021 hPa
Summary: Sereno
Visibility: superiore a 10 km
2021/10/20 12:00 LJCE 201200Z 23011KT CAVOK 20/10 Q1021 RMK BLU
 
LDZA - Zagreb/Pleso, Croatia
Distance from station: ESE 96km
Dati ricevuti: 20/10/2021 14:00
Sereno
Sereno
 Vento da OSO
Vento: OSO 19 km/h
Temperatura: 21°C
P.to Rugiada: 8°C
Umidità: 43%
Barometro: 1021 hPa
Summary: Sereno
Visibility: superiore a 10 km
2021/10/20 12:00 LDZA 201200Z 24010KT CAVOK 21/08 Q1021 NOSIG
LDRI - Rijeka/Omisalj, Croatia
Distance from station: SSO 109km
Dati ricevuti: 20/10/2021 14:00
Few Clouds
Few Clouds
 Vento da SO
Vento: SO 7 km/h
Temperatura: 18°C
P.to Rugiada: 11°C
Umidità: 64%
Barometro: 1025 hPa
Nuvole: Few Clouds
Visibility: 10 km
Cloud details: Few Clouds 1219 m
2021/10/20 12:00 LDRI 201200Z 22004KT 150V290 9999 FEW040 18/11 Q1025
 
LDPL - Pula, Croatia
Distance from station: SSO 164km
Dati ricevuti: 20/10/2021 14:00
Few Clouds
Few Clouds
 Vento da SO
Vento: SO 9 km/h
Temperatura: 19°C
P.to Rugiada: 12°C
Umidità: 64%
Barometro: 1025 hPa
Nuvole: Few Clouds
Visibility: 10 km
Cloud details: Few Clouds 732 m
2021/10/20 12:00 LDPL 201200Z 22005KT 160V260 9999 FEW024 19/12 Q1025 NOSIG
LOWK - Klagenfurt(Civ/M, Austria
Distance from station: NO 76km
Dati ricevuti: 20/10/2021 13:50
Sereno
Sereno
 Vento da Variabile
Vento: Variabile 4 km/h
Temperatura: 16°C
P.to Rugiada: 9°C
Umidità: 63%
Barometro: 1019 hPa
Summary: Sereno
Visibility: superiore a 10 km
2021/10/20 11:50 LOWK 201150Z VRB02KT CAVOK 16/09 Q1019 NOSIG
 
LOWG - Graz (mil/Civ), Austria
Distance from station: NNE 100km
Dati ricevuti: 20/10/2021 13:50
Sereno
Sereno
 Vento da SSE
Vento: SSE 13 km/h
Temperatura: 18°C
P.to Rugiada: 10°C
Umidità: 60%
Barometro: 1018 hPa
Summary: Sereno
Visibility: superiore a 10 km
2021/10/20 11:50 LOWG 201150Z 16007KT 130V190 CAVOK 18/10 Q1018 NOSIG
LOAN - Wr.neustadt East, Austria
Distance from station: NNE 212km
Dati ricevuti: 20/10/2021 14:00
Sereno
Sereno
 Vento da SSE
Vento: SSE 22 km/h
Summary: Sereno
Visibility: superiore a 10 km
2021/10/20 12:00 LOAN 201200Z 15012KT CAVOK
 
LIPQ - Ronchi Legionari, Italy
Distance from station: SO 35km
Dati ricevuti: 20/10/2021 13:50
Coperto
Coperto
 Vento da SE
Vento: SE 7 km/h
Temperatura: 16°C
P.to Rugiada: 13°C
Umidità: 83%
Barometro: 1024 hPa
Nuvole: Coperto
Visibility: 7 km
Cloud details: Molto nuvoloso 518 m
Coperto 945 m
2021/10/20 11:50 LIPQ 201150Z AUTO 14004KT 120V180 7000 BKN017/// OVC031/// 16/13 Q1024
LIVT - Trieste, Italy
Distance from station: OSO 109km
Dati ricevuti: 20/10/2021 13:55
Mist, Coperto
Mist, Coperto
 Vento da calmo
Vento: Calma
Temperatura: 17°C
P.to Rugiada: 13°C
Umidità: 77%
Barometro: 1024 hPa
Summary: Mist
Nuvole: Coperto
Visibility: 4 km
Cloud details: Parz. nuvoloso 610 m
Coperto 914 m
2021/10/20 11:55 LIVT 201155Z 00000KT 4000 BR SCT020 OVC030 17/13 Q1024 RMK OVC QUK 0 QUL 0 VIS MAR 4 KM VIS MIN 4000
 
LIVO - Tarvisio, Italy
Distance from station: NNO 49km
Dati ricevuti: 20/10/2021 13:55
Sereno
Sereno
 Vento da O
Vento: O 19 km/h
Temperatura: 17°C
P.to Rugiada: 8°C
Umidità: 56%
Barometro: 1022 hPa
Summary: Sereno
Visibility: superiore a 10 km
2021/10/20 11:55 LIVO 201155Z 27010KT CAVOK 17/08 Q1022 RMK SCT SCT230 VIS MIN 9999
LIPZ - Venezia/Tessera, Italy
Distance from station: OSO 217km
Dati ricevuti: 20/10/2021 13:50
Parz. nuvoloso
Parz. nuvoloso
 Vento da SSE
Vento: SSE 7 km/h
Temperatura: 16°C
P.to Rugiada: 11°C
Umidità: 72%
Barometro: 1024 hPa
Nuvole: Parz. nuvoloso
Visibility: 6 km
2021/10/20 11:50 LIPZ 201150Z 15004KT 6000 NSC 16/11 Q1024 NOSIG
 
LHSM - Balaton, Hungary
Distance from station: ENE 177km
Dati ricevuti: 20/10/2021 13:45
Sereno
Sereno
 Vento da S
Vento: S 22 km/h
Temperatura: 19°C
P.to Rugiada: 8°C
Umidità: 49%
Barometro: 1020 hPa
Nuvole: Sereno
Visibility: 9 km
2021/10/20 11:45 LHSM 201145Z AUTO 18012KT 9000 NCD 19/08 Q1020 NOSIG